METAR Data

Data at: 1054 UTC 21 Apr 2021

METAR for:KMQE (Milton/Blue Hills Ob, MA, US)
Text:KMQE 211051Z AUTO 18015G22KT 09/08 A2981 RMK AO1 SLP104 T00890078
Temperature: 8.9°C ( 48°F)
Dewpoint: 7.8°C ( 46°F) [RH = 93%]
Pressure (altimeter):29.81 inches Hg (1009.6 mb) [Sea level pressure: 1010.4 mb]
Winds:from the S (180 degrees) at 17 MPH (15 knots; 7.7 m/s) gusting to 25 MPH (22 knots; 11.3 m/s)
QC Flag:automated observation with no human augmentation